Terminal Aerodrome Forecast
Issued by NWS Nashville, TN

Home | Current Version | Previous Version | Text Only | Print | Product List | Glossary On
Versions: 1 2 3 4 5 6 7 8 9 10 11 12 13 14 15 16 17 18 19 20 21 22 23 24 25 26 27 28 29 30 31 32 33 34 35 36
000
FTUS44 KOHX 221208 AAB
TAFBNA
TAF AMD
KBNA 221208Z 2212/2312 10005KT P6SM VCSH SCT015 OVC120
     FM221500 14007KT P6SM VCSH OVC020
     FM222000 07006KT P6SM VCSH OVC020
     FM230000 01007KT 4SM SHRA BR OVC020
     FM230600 33012G17KT 4SM SHRA OVC010
     FM230900 33014G22KT 5SM -SHRA OVC020=

USA.gov is the U.S. government's official web portal to all federal, state and local government web resources and services.